createdAt,value
2023-04-22T00:02:14.387Z,11.83
2023-04-22T00:05:20.539Z,11.81
2023-04-22T00:08:25.585Z,11.78
2023-04-22T00:11:28.420Z,11.81
2023-04-22T00:14:31.082Z,11.78
2023-04-22T00:17:34.109Z,11.77
2023-04-22T00:20:36.868Z,11.71
2023-04-22T00:23:41.012Z,11.70
2023-04-22T00:26:43.747Z,11.67
2023-04-22T00:29:46.486Z,11.76
2023-04-22T00:32:49.616Z,11.69
2023-04-22T00:35:54.647Z,11.60
2023-04-22T00:38:58.716Z,11.59
2023-04-22T00:42:01.956Z,11.59
2023-04-22T00:45:05.860Z,11.60
2023-04-22T00:48:09.422Z,11.63
2023-04-22T00:51:12.204Z,11.64
2023-04-22T00:54:17.247Z,11.71
2023-04-22T00:57:20.258Z,11.69
2023-04-22T01:00:27.211Z,11.63
2023-04-22T01:03:31.483Z,11.59
2023-04-22T01:06:36.391Z,11.44
2023-04-22T01:09:42.214Z,11.33
2023-04-22T01:12:45.275Z,11.26
2023-04-22T01:15:48.452Z,11.39
2023-04-22T01:18:52.975Z,11.44
2023-04-22T01:21:57.106Z,11.27
2023-04-22T01:25:01.895Z,11.20
2023-04-22T01:28:05.077Z,11.14
2023-04-22T01:31:07.910Z,11.02
2023-04-22T01:34:11.758Z,11.02
2023-04-22T01:37:14.524Z,11.15
2023-04-22T01:40:22.577Z,11.32
2023-04-22T01:43:25.439Z,11.18
2023-04-22T01:46:28.242Z,10.95
2023-04-22T01:49:31.096Z,11.02
2023-04-22T01:52:34.288Z,11.00
2023-04-22T01:55:39.324Z,10.98
2023-04-22T01:58:41.995Z,11.00
2023-04-22T02:01:44.688Z,11.18
2023-04-22T02:04:47.537Z,11.05
2023-04-22T02:07:52.803Z,11.02
2023-04-22T02:10:58.217Z,11.08
2023-04-22T02:14:00.893Z,11.26
2023-04-22T02:17:04.522Z,11.18
2023-04-22T02:20:08.611Z,11.14
2023-04-22T02:23:11.859Z,11.12
2023-04-22T02:26:15.914Z,11.14
2023-04-22T02:29:18.570Z,11.12
2023-04-22T02:32:21.370Z,11.12
2023-04-22T02:35:24.107Z,11.26
2023-04-22T02:38:26.857Z,11.20
2023-04-22T02:41:31.005Z,11.20
2023-04-22T02:44:33.736Z,11.20
2023-04-22T02:47:36.480Z,11.26
2023-04-22T02:50:39.241Z,11.20
2023-04-22T02:53:41.908Z,10.91
2023-04-22T02:56:46.151Z,11.16
2023-04-22T02:59:48.820Z,11.20
2023-04-22T03:02:51.702Z,11.14
2023-04-22T03:05:55.376Z,11.13
2023-04-22T03:08:58.054Z,11.29
2023-04-22T03:12:02.664Z,11.32
2023-04-22T03:15:06.199Z,11.32
2023-04-22T03:18:09.056Z,11.15
2023-04-22T03:21:11.801Z,11.09
2023-04-22T03:24:14.508Z,11.07
2023-04-22T03:27:21.498Z,11.08
2023-04-22T03:30:24.363Z,11.22
2023-04-22T03:33:27.344Z,11.26
2023-04-22T03:36:30.058Z,11.21
2023-04-22T03:39:32.896Z,11.08
2023-04-22T03:42:36.951Z,11.07
2023-04-22T03:45:39.779Z,10.88
2023-04-22T03:48:42.480Z,10.98
2023-04-22T03:51:45.215Z,10.91
2023-04-22T03:54:48.409Z,10.91
2023-04-22T03:57:52.423Z,10.88
2023-04-22T04:00:55.372Z,10.87
2023-04-22T04:03:58.291Z,10.79
2023-04-22T04:07:01.891Z,10.78
2023-04-22T04:10:04.945Z,10.76
2023-04-22T04:13:09.150Z,10.69
2023-04-22T04:16:11.931Z,10.66
2023-04-22T04:19:14.711Z,10.62
2023-04-22T04:22:20.835Z,10.59
2023-04-22T04:25:23.629Z,10.66
2023-04-22T04:28:29.708Z,10.60
2023-04-22T04:31:32.512Z,10.55
2023-04-22T04:34:37.683Z,10.53
2023-04-22T04:37:40.565Z,10.53
2023-04-22T04:40:46.329Z,10.55
2023-04-22T04:43:50.539Z,10.63
2023-04-22T04:46:54.722Z,10.57
2023-04-22T04:49:58.589Z,10.53
2023-04-22T04:53:02.154Z,10.63
2023-04-22T04:56:05.068Z,10.67
2023-04-22T04:59:09.088Z,10.52
2023-04-22T05:02:12.256Z,10.50
2023-04-22T05:05:15.125Z,10.69
2023-04-22T05:08:18.196Z,10.67
2023-04-22T05:11:22.960Z,10.69
2023-04-22T05:14:26.952Z,10.74
2023-04-22T05:17:31.503Z,10.84
2023-04-22T05:20:36.154Z,10.87
2023-04-22T05:23:39.653Z,10.91
2023-04-22T05:26:42.565Z,10.71
2023-04-22T05:29:46.600Z,10.74
2023-04-22T05:32:49.343Z,10.73
2023-04-22T05:35:52.433Z,10.78
2023-04-22T05:38:55.157Z,11.02
2023-04-22T05:41:57.860Z,11.06
2023-04-22T05:45:01.916Z,11.09
2023-04-22T05:48:04.932Z,11.20
2023-04-22T05:51:07.658Z,11.19
2023-04-22T05:54:10.527Z,11.18
2023-04-22T05:57:13.340Z,11.27
2023-04-22T06:00:18.907Z,11.37
2023-04-22T06:03:21.733Z,11.50
2023-04-22T06:06:25.256Z,11.52
2023-04-22T06:09:28.854Z,11.61
2023-04-22T06:12:31.528Z,11.74
2023-04-22T06:15:36.963Z,11.84
2023-04-22T06:18:40.464Z,11.87
2023-04-22T06:21:43.238Z,11.92
2023-04-22T06:24:46.396Z,12.10
2023-04-22T06:27:50.842Z,12.07
2023-04-22T06:30:54.925Z,12.17
2023-04-22T06:33:57.540Z,12.07
2023-04-22T06:37:00.421Z,12.03
2023-04-22T06:40:03.154Z,12.05
2023-04-22T06:43:06.237Z,12.27
2023-04-22T06:46:10.548Z,12.56
2023-04-22T06:49:13.258Z,12.96
2023-04-22T06:52:15.977Z,13.39
2023-04-22T06:55:18.870Z,13.75
2023-04-22T06:58:22.111Z,13.85
2023-04-22T07:01:26.202Z,13.84
2023-04-22T07:04:29.461Z,13.86
2023-04-22T07:07:32.288Z,13.85
2023-04-22T07:10:35.323Z,13.86
2023-04-22T07:13:37.966Z,13.93
2023-04-22T07:16:42.308Z,14.12
2023-04-22T07:19:45.037Z,14.38
2023-04-22T07:22:47.725Z,14.38
2023-04-22T07:25:50.433Z,14.31
2023-04-22T07:28:53.161Z,14.41
2023-04-22T07:31:57.812Z,14.69
2023-04-22T07:35:00.536Z,14.89
2023-04-22T07:38:03.691Z,14.84
2023-04-22T07:41:06.332Z,14.86
2023-04-22T07:44:10.526Z,14.74
2023-04-22T07:47:14.530Z,14.83
2023-04-22T07:50:17.197Z,14.76
2023-04-22T07:53:20.696Z,14.81
2023-04-22T07:56:23.389Z,14.86
2023-04-22T07:59:26.137Z,14.89
2023-04-22T08:02:30.254Z,15.08
2023-04-22T08:05:33.097Z,15.18
2023-04-22T08:08:35.785Z,15.27
2023-04-22T08:11:38.499Z,15.27
2023-04-22T08:14:41.560Z,15.53
2023-04-22T08:17:46.001Z,15.43
2023-04-22T08:20:49.065Z,15.46
2023-04-22T08:23:52.117Z,15.63
2023-04-22T08:26:54.812Z,15.80
2023-04-22T08:29:57.444Z,15.91
2023-04-22T08:33:01.932Z,15.94
2023-04-22T08:36:04.959Z,16.02
2023-04-22T08:39:07.730Z,16.27
2023-04-22T08:42:10.507Z,16.36
2023-04-22T08:45:14.710Z,16.57
2023-04-22T08:48:20.132Z,16.54
2023-04-22T08:51:23.597Z,16.74
2023-04-22T08:54:26.544Z,16.70
2023-04-22T08:57:30.663Z,16.92
2023-04-22T09:00:34.550Z,17.00
2023-04-22T09:03:41.050Z,17.17
2023-04-22T09:06:43.788Z,17.10
2023-04-22T09:09:46.871Z,17.18
2023-04-22T09:12:50.268Z,17.30
2023-04-22T09:15:52.931Z,17.48
2023-04-22T09:18:56.951Z,17.63
2023-04-22T09:21:59.864Z,17.65
2023-04-22T09:25:02.563Z,17.92
2023-04-22T09:28:05.381Z,18.11
2023-04-22T09:31:15.100Z,18.32
2023-04-22T09:34:19.844Z,18.46
2023-04-22T09:37:31.018Z,18.48
2023-04-22T09:40:44.249Z,18.88
2023-04-22T09:43:47.015Z,19.22
2023-04-22T09:46:51.299Z,19.25
2023-04-22T09:49:55.383Z,19.23
2023-04-22T09:53:00.685Z,19.48
2023-04-22T09:56:05.771Z,19.41
2023-04-22T09:59:09.872Z,19.74
2023-04-22T10:02:13.214Z,19.69
2023-04-22T10:05:18.021Z,19.99
2023-04-22T10:08:20.728Z,20.01
2023-04-22T10:11:23.521Z,20.18
2023-04-22T10:14:26.935Z,20.35
2023-04-22T10:17:32.834Z,20.57
2023-04-22T10:20:39.926Z,20.81
2023-04-22T10:23:48.105Z,21.09
2023-04-22T10:26:56.653Z,21.32
2023-04-22T10:29:59.685Z,21.58
2023-04-22T10:33:42.142Z,21.74
2023-04-22T10:36:57.424Z,21.93
2023-04-22T10:40:09.136Z,22.12
2023-04-22T10:43:13.907Z,22.23
2023-04-22T10:46:53.959Z,22.42
2023-04-22T10:50:17.819Z,22.31
2023-04-22T10:53:38.541Z,22.46
2023-04-22T10:57:03.763Z,22.52
2023-04-22T11:00:25.164Z,22.58
2023-04-22T11:03:30.140Z,22.60
2023-04-22T11:06:33.213Z,22.52
2023-04-22T11:09:41.351Z,22.53
2023-04-22T11:12:45.123Z,22.55
2023-04-22T11:15:50.304Z,22.60
2023-04-22T11:18:53.424Z,22.60
2023-04-22T11:21:57.634Z,22.59
2023-04-22T11:25:02.607Z,22.72
2023-04-22T11:28:05.268Z,22.86
2023-04-22T11:31:10.915Z,23.04
2023-04-22T11:34:13.691Z,23.13
2023-04-22T11:37:20.728Z,23.20
2023-04-22T11:40:31.542Z,23.26
2023-04-22T11:43:34.892Z,23.26
2023-04-22T11:46:39.580Z,23.34
2023-04-22T11:49:42.309Z,23.42
2023-04-22T11:52:47.079Z,23.39
2023-04-22T11:55:52.937Z,23.36
2023-04-22T11:58:55.692Z,23.38
2023-04-22T12:01:58.717Z,23.40
2023-04-22T12:05:03.673Z,23.44
2023-04-22T12:08:09.060Z,23.36
2023-04-22T12:11:13.951Z,23.25
2023-04-22T12:14:16.631Z,23.48
2023-04-22T12:17:24.836Z,23.59
2023-04-22T12:20:33.564Z,23.61
2023-04-22T12:23:43.473Z,23.68
2023-04-22T12:26:47.517Z,23.85
2023-04-22T12:29:54.764Z,23.95
2023-04-22T12:32:58.093Z,24.22
2023-04-22T12:36:00.828Z,24.46
2023-04-22T12:39:04.793Z,24.67
2023-04-22T12:42:09.327Z,24.83
2023-04-22T12:45:12.530Z,24.86
2023-04-22T12:48:15.472Z,24.92
2023-04-22T12:51:20.344Z,24.92
2023-04-22T12:54:23.808Z,24.88
2023-04-22T12:57:28.398Z,24.93
2023-04-22T13:00:31.349Z,25.11
2023-04-22T13:03:34.155Z,25.31
2023-04-22T13:09:45.480Z,25.59
2023-04-22T13:12:49.895Z,25.62
2023-04-22T13:15:54.152Z,25.58
2023-04-22T13:18:57.823Z,25.42
2023-04-22T13:22:00.462Z,25.11
2023-04-22T13:25:04.828Z,24.81
2023-04-22T13:28:08.901Z,24.52
2023-04-22T13:31:11.588Z,24.21
2023-04-22T13:34:15.351Z,23.94
2023-04-22T13:37:20.062Z,23.78
2023-04-22T13:40:23.145Z,23.67
2023-04-22T13:43:27.200Z,23.58
2023-04-22T13:46:29.855Z,23.48
2023-04-22T13:49:32.714Z,23.40
2023-04-22T13:52:35.430Z,23.42
2023-04-22T13:55:38.450Z,23.46
2023-04-22T13:58:43.451Z,23.43
2023-04-22T14:01:46.162Z,23.30
2023-04-22T14:04:48.835Z,23.18
2023-04-22T14:07:51.862Z,23.03
2023-04-22T14:10:55.366Z,22.88
2023-04-22T14:13:59.412Z,22.72
2023-04-22T14:17:02.326Z,22.53
2023-04-22T14:20:06.891Z,22.36
2023-04-22T14:23:11.806Z,22.27
2023-04-22T14:26:14.473Z,22.18
2023-04-22T14:29:19.052Z,22.07
2023-04-22T14:32:22.309Z,21.97
2023-04-22T14:35:25.007Z,21.91
2023-04-22T14:38:28.068Z,21.82
2023-04-22T14:41:30.757Z,21.76
2023-04-22T14:44:34.897Z,21.71
2023-04-22T14:47:37.708Z,21.66
2023-04-22T14:50:40.608Z,21.50
2023-04-22T14:53:43.901Z,21.57
2023-04-22T14:56:47.477Z,21.51
2023-04-22T14:59:51.550Z,21.49
2023-04-22T15:02:54.944Z,21.57
2023-04-22T15:05:58.466Z,21.68
2023-04-22T15:09:01.861Z,21.76
2023-04-22T15:12:05.676Z,21.85
2023-04-22T15:15:13.262Z,21.89
2023-04-22T15:18:15.932Z,21.89
2023-04-22T15:21:18.700Z,21.85
2023-04-22T15:24:21.399Z,21.81
2023-04-22T15:27:24.137Z,21.80
2023-04-22T15:30:28.277Z,21.76
2023-04-22T15:33:30.952Z,21.71
2023-04-22T15:36:34.140Z,21.65
2023-04-22T15:39:36.816Z,21.56
2023-04-22T15:42:39.591Z,21.48
2023-04-22T15:45:43.785Z,21.42
2023-04-22T15:48:47.466Z,21.33
2023-04-22T15:51:50.301Z,21.23
2023-04-22T15:54:53.032Z,21.16
2023-04-22T15:57:55.878Z,21.08
2023-04-22T16:01:11.423Z,21.02
2023-04-22T16:04:21.209Z,20.99
2023-04-22T16:07:24.118Z,21.00
2023-04-22T16:10:27.950Z,20.98
2023-04-22T16:13:30.910Z,20.94
2023-04-22T16:16:34.979Z,20.95
2023-04-22T16:19:37.856Z,20.98
2023-04-22T16:22:40.570Z,20.94
2023-04-22T16:25:43.241Z,20.92
2023-04-22T16:28:46.932Z,20.92
2023-04-22T16:31:51.213Z,20.91
2023-04-22T16:34:53.918Z,20.85
2023-04-22T16:37:56.645Z,20.82
2023-04-22T16:40:59.302Z,20.74
2023-04-22T16:44:02.155Z,20.74
2023-04-22T16:47:06.486Z,20.70
2023-04-22T16:50:12.314Z,20.72
2023-04-22T16:53:15.014Z,20.70
2023-04-22T16:56:17.657Z,20.71
2023-04-22T16:59:20.339Z,20.70
2023-04-22T17:02:24.572Z,20.68
2023-04-22T17:05:27.381Z,20.69
2023-04-22T17:08:30.047Z,20.65
2023-04-22T17:11:32.994Z,20.60
2023-04-22T17:14:35.629Z,20.56
2023-04-22T17:17:39.625Z,20.48
2023-04-22T17:20:42.680Z,20.38
2023-04-22T17:23:45.712Z,20.33
2023-04-22T17:26:48.351Z,20.28
2023-04-22T17:29:51.034Z,20.23
2023-04-22T17:32:55.217Z,20.19
2023-04-22T17:35:58.045Z,20.13
2023-04-22T17:39:00.734Z,20.09
2023-04-22T17:42:03.651Z,20.03
2023-04-22T17:45:07.144Z,19.96
2023-04-22T17:48:11.254Z,19.90
2023-04-22T17:51:16.991Z,19.85
2023-04-22T17:54:19.703Z,19.75
2023-04-22T17:57:22.454Z,19.67
2023-04-22T18:00:25.774Z,19.57
2023-04-22T18:03:30.576Z,19.51
2023-04-22T18:06:33.564Z,19.39
2023-04-22T18:09:36.284Z,19.38
2023-04-22T18:12:39.328Z,19.23
2023-04-22T18:15:42.073Z,19.09
2023-04-22T18:18:46.139Z,19.01
2023-04-22T18:21:59.534Z,18.86
2023-04-22T18:25:03.623Z,18.78
2023-04-22T18:28:06.326Z,18.77
2023-04-22T18:31:09.308Z,18.68
2023-04-22T18:34:15.623Z,18.58
2023-04-22T18:37:18.333Z,18.50
2023-04-22T18:40:21.633Z,18.50
2023-04-22T18:43:24.361Z,18.42
2023-04-22T18:46:27.105Z,18.42
2023-04-22T18:49:33.659Z,18.38
2023-04-22T18:52:36.828Z,18.36
2023-04-22T18:55:39.570Z,18.26
2023-04-22T18:58:42.266Z,18.16
2023-04-22T19:01:45.810Z,18.11
2023-04-22T19:04:50.174Z,18.09
2023-04-22T19:07:53.068Z,18.03
2023-04-22T19:10:56.750Z,18.00
2023-04-22T19:13:59.513Z,17.89
2023-04-22T19:17:03.153Z,17.86
2023-04-22T19:20:08.718Z,17.78
2023-04-22T19:23:11.927Z,17.69
2023-04-22T19:26:14.668Z,17.65
2023-04-22T19:29:17.366Z,17.65
2023-04-22T19:32:21.095Z,17.66
2023-04-22T19:35:27.201Z,17.65
2023-04-22T19:38:29.978Z,17.62
2023-04-22T19:41:33.465Z,17.58
2023-04-22T19:44:36.327Z,17.57
2023-04-22T19:47:39.871Z,17.56
2023-04-22T19:50:45.193Z,17.39
2023-04-22T19:53:48.853Z,17.36
2023-04-22T19:56:53.049Z,17.42
2023-04-22T19:59:56.456Z,17.34
2023-04-22T20:03:00.347Z,17.26
2023-04-22T20:06:06.014Z,17.24
2023-04-22T20:09:10.468Z,17.28
2023-04-22T20:12:13.700Z,17.21
2023-04-22T20:15:17.188Z,17.17
2023-04-22T20:18:20.246Z,17.21
2023-04-22T20:21:25.013Z,17.19
2023-04-22T20:24:29.717Z,17.21
2023-04-22T20:27:33.970Z,17.21
2023-04-22T20:30:37.446Z,17.22
2023-04-22T20:33:40.500Z,17.25
2023-04-22T20:36:44.955Z,17.22
2023-04-22T20:39:49.624Z,17.24
2023-04-22T20:42:52.475Z,17.22
2023-04-22T20:45:55.178Z,17.24
2023-04-22T20:48:57.904Z,17.23
2023-04-22T20:52:02.286Z,17.24
2023-04-22T20:55:06.499Z,17.22
2023-04-22T20:58:09.322Z,17.20
2023-04-22T21:01:16.231Z,17.14
2023-04-22T21:04:19.462Z,17.11
2023-04-22T21:07:25.043Z,17.07
2023-04-22T21:10:28.432Z,17.02
2023-04-22T21:13:31.754Z,16.94
2023-04-22T21:16:39.462Z,16.87
2023-04-22T21:19:48.091Z,16.79
2023-04-22T21:22:54.847Z,16.76
2023-04-22T21:26:00.799Z,16.70
2023-04-22T21:29:07.490Z,16.64
2023-04-22T21:32:10.327Z,16.61
2023-04-22T21:35:13.125Z,16.63
2023-04-22T21:38:17.166Z,16.52
2023-04-22T21:41:19.858Z,16.49
2023-04-22T21:44:22.545Z,16.43
2023-04-22T21:47:25.308Z,16.39
2023-04-22T21:50:30.202Z,16.33
2023-04-22T21:53:34.430Z,16.36
2023-04-22T21:56:37.167Z,16.37
2023-04-22T21:59:39.923Z,16.39
2023-04-22T22:02:43.088Z,16.38
2023-04-22T22:05:46.000Z,16.42
2023-04-22T22:08:50.954Z,16.39
2023-04-22T22:11:53.656Z,16.33
2023-04-22T22:14:56.378Z,16.34
2023-04-22T22:17:59.428Z,16.31
2023-04-22T22:21:02.192Z,16.32
2023-04-22T22:24:06.792Z,16.23
2023-04-22T22:27:09.800Z,16.28
2023-04-22T22:30:13.569Z,16.20
2023-04-22T22:33:16.351Z,16.25
2023-04-22T22:36:20.272Z,16.21
2023-04-22T22:39:24.479Z,16.20
2023-04-22T22:42:27.156Z,16.16
2023-04-22T22:45:29.869Z,16.18
2023-04-22T22:48:32.793Z,16.15
2023-04-22T22:51:37.572Z,16.13
2023-04-22T22:54:42.184Z,16.11
2023-04-22T22:57:45.265Z,16.07
2023-04-22T23:00:48.578Z,16.02
2023-04-22T23:03:51.760Z,15.97
2023-04-22T23:06:55.006Z,15.91
2023-04-22T23:09:59.295Z,15.91
2023-04-22T23:13:02.140Z,15.84
2023-04-22T23:16:05.481Z,15.79
2023-04-22T23:19:08.531Z,15.62
2023-04-22T23:22:12.700Z,15.56
2023-04-22T23:25:17.922Z,15.54
2023-04-22T23:28:21.129Z,15.52
2023-04-22T23:31:25.136Z,15.51
2023-04-22T23:34:30.085Z,15.52
2023-04-22T23:37:35.558Z,15.55
2023-04-22T23:40:39.670Z,15.57
2023-04-22T23:43:42.321Z,15.56
2023-04-22T23:46:45.335Z,15.57
2023-04-22T23:49:48.850Z,15.52
2023-04-22T23:52:51.513Z,15.54
2023-04-22T23:55:56.439Z,15.58
2023-04-22T23:58:59.645Z,15.59
